sensor_id;sensor_type;location;lat;lon;timestamp;P1;durP1;ratioP1;P2;durP2;ratioP2
28862;SDS011;15994;51.796;13.006;2023-10-13T00:01:01;22.92;;;10.65;;
28862;SDS011;15994;51.796;13.006;2023-10-13T00:03:31;15.18;;;10.68;;
28862;SDS011;15994;51.796;13.006;2023-10-13T00:05:58;15.48;;;10.75;;
28862;SDS011;15994;51.796;13.006;2023-10-13T00:08:28;19.33;;;10.43;;
28862;SDS011;15994;51.796;13.006;2023-10-13T00:10:56;20.27;;;11.68;;
28862;SDS011;15994;51.796;13.006;2023-10-13T00:13:28;19.92;;;10.85;;
28862;SDS011;15994;51.796;13.006;2023-10-13T00:15:56;16.00;;;11.68;;
28862;SDS011;15994;51.796;13.006;2023-10-13T00:18:25;16.88;;;11.30;;
28862;SDS011;15994;51.796;13.006;2023-10-13T00:20:58;18.00;;;11.30;;
28862;SDS011;15994;51.796;13.006;2023-10-13T00:23:25;18.23;;;12.15;;
28862;SDS011;15994;51.796;13.006;2023-10-13T00:25:53;17.40;;;11.98;;
28862;SDS011;15994;51.796;13.006;2023-10-13T00:28:27;19.05;;;12.55;;
28862;SDS011;15994;51.796;13.006;2023-10-13T00:31:08;16.48;;;11.75;;
28862;SDS011;15994;51.796;13.006;2023-10-13T00:33:37;20.58;;;12.50;;
28862;SDS011;15994;51.796;13.006;2023-10-13T00:36:06;18.63;;;12.85;;
28862;SDS011;15994;51.796;13.006;2023-10-13T00:38:34;20.75;;;13.48;;
28862;SDS011;15994;51.796;13.006;2023-10-13T00:41:02;19.80;;;13.50;;
28862;SDS011;15994;51.796;13.006;2023-10-13T00:43:43;20.63;;;14.25;;
28862;SDS011;15994;51.796;13.006;2023-10-13T00:46:10;19.30;;;13.25;;
28862;SDS011;15994;51.796;13.006;2023-10-13T00:48:40;22.85;;;13.73;;
28862;SDS011;15994;51.796;13.006;2023-10-13T00:51:16;19.40;;;13.80;;
28862;SDS011;15994;51.796;13.006;2023-10-13T00:53:56;27.13;;;15.15;;
28862;SDS011;15994;51.796;13.006;2023-10-13T00:56:23;21.75;;;14.70;;
28862;SDS011;15994;51.796;13.006;2023-10-13T00:58:56;20.83;;;13.55;;
28862;SDS011;15994;51.796;13.006;2023-10-13T01:01:27;20.85;;;14.68;;
28862;SDS011;15994;51.796;13.006;2023-10-13T01:03:57;20.52;;;14.60;;
28862;SDS011;15994;51.796;13.006;2023-10-13T01:06:24;19.65;;;14.77;;
28862;SDS011;15994;51.796;13.006;2023-10-13T01:11:25;22.45;;;14.40;;
28862;SDS011;15994;51.796;13.006;2023-10-13T01:13:54;24.92;;;15.07;;
28862;SDS011;15994;51.796;13.006;2023-10-13T01:16:22;22.70;;;15.07;;
28862;SDS011;15994;51.796;13.006;2023-10-13T01:18:51;24.70;;;14.77;;
28862;SDS011;15994;51.796;13.006;2023-10-13T01:21:17;19.98;;;14.95;;
28862;SDS011;15994;51.796;13.006;2023-10-13T01:23:46;22.52;;;15.18;;
28862;SDS011;15994;51.796;13.006;2023-10-13T01:26:15;22.25;;;15.07;;
28862;SDS011;15994;51.796;13.006;2023-10-13T01:28:46;20.80;;;14.55;;
28862;SDS011;15994;51.796;13.006;2023-10-13T01:31:13;25.30;;;14.68;;
28862;SDS011;15994;51.796;13.006;2023-10-13T01:36:19;20.35;;;14.35;;
28862;SDS011;15994;51.796;13.006;2023-10-13T01:38:45;22.38;;;15.18;;
28862;SDS011;15994;51.796;13.006;2023-10-13T01:41:13;24.58;;;15.95;;
28862;SDS011;15994;51.796;13.006;2023-10-13T01:43:39;24.20;;;15.57;;
28862;SDS011;15994;51.796;13.006;2023-10-13T01:46:06;21.10;;;14.60;;
28862;SDS011;15994;51.796;13.006;2023-10-13T01:48:34;24.15;;;15.35;;
28862;SDS011;15994;51.796;13.006;2023-10-13T01:51:04;22.23;;;15.32;;
28862;SDS011;15994;51.796;13.006;2023-10-13T01:53:33;24.90;;;16.20;;
28862;SDS011;15994;51.796;13.006;2023-10-13T01:56:01;23.73;;;15.60;;
28862;SDS011;15994;51.796;13.006;2023-10-13T01:58:30;24.15;;;15.55;;
28862;SDS011;15994;51.796;13.006;2023-10-13T02:00:59;19.92;;;15.07;;
28862;SDS011;15994;51.796;13.006;2023-10-13T02:03:25;23.15;;;15.13;;
28862;SDS011;15994;51.796;13.006;2023-10-13T02:05:54;22.98;;;15.23;;
28862;SDS011;15994;51.796;13.006;2023-10-13T02:08:23;24.50;;;15.77;;
28862;SDS011;15994;51.796;13.006;2023-10-13T02:10:53;21.42;;;15.48;;
28862;SDS011;15994;51.796;13.006;2023-10-13T02:13:20;24.48;;;14.98;;
28862;SDS011;15994;51.796;13.006;2023-10-13T02:15:48;20.30;;;14.40;;
28862;SDS011;15994;51.796;13.006;2023-10-13T02:18:18;19.75;;;14.57;;
28862;SDS011;15994;51.796;13.006;2023-10-13T02:20:51;19.73;;;14.18;;
28862;SDS011;15994;51.796;13.006;2023-10-13T02:23:23;21.20;;;14.27;;
28862;SDS011;15994;51.796;13.006;2023-10-13T02:25:50;18.08;;;13.68;;
28862;SDS011;15994;51.796;13.006;2023-10-13T02:28:25;18.30;;;13.93;;
28862;SDS011;15994;51.796;13.006;2023-10-13T02:30:54;22.08;;;14.70;;
28862;SDS011;15994;51.796;13.006;2023-10-13T02:33:22;23.23;;;15.05;;
28862;SDS011;15994;51.796;13.006;2023-10-13T02:35:55;24.67;;;15.55;;
28862;SDS011;15994;51.796;13.006;2023-10-13T02:38:21;23.50;;;14.60;;
28862;SDS011;15994;51.796;13.006;2023-10-13T02:40:56;20.23;;;15.38;;
28862;SDS011;15994;51.796;13.006;2023-10-13T02:43:30;19.52;;;14.23;;
28862;SDS011;15994;51.796;13.006;2023-10-13T02:45:58;22.33;;;14.65;;
28862;SDS011;15994;51.796;13.006;2023-10-13T02:48:26;20.02;;;14.35;;
28862;SDS011;15994;51.796;13.006;2023-10-13T02:50:57;25.00;;;14.98;;
28862;SDS011;15994;51.796;13.006;2023-10-13T02:53:26;19.65;;;14.77;;
28862;SDS011;15994;51.796;13.006;2023-10-13T02:55:53;20.77;;;15.25;;
28862;SDS011;15994;51.796;13.006;2023-10-13T02:58:21;22.27;;;15.27;;
28862;SDS011;15994;51.796;13.006;2023-10-13T03:00:47;22.30;;;14.93;;
28862;SDS011;15994;51.796;13.006;2023-10-13T03:03:15;19.77;;;14.93;;
28862;SDS011;15994;51.796;13.006;2023-10-13T03:05:43;22.92;;;14.95;;
28862;SDS011;15994;51.796;13.006;2023-10-13T03:08:10;21.60;;;14.02;;
28862;SDS011;15994;51.796;13.006;2023-10-13T03:10:37;22.25;;;14.98;;
28862;SDS011;15994;51.796;13.006;2023-10-13T03:13:13;20.33;;;14.27;;
28862;SDS011;15994;51.796;13.006;2023-10-13T03:15:39;19.80;;;14.10;;
28862;SDS011;15994;51.796;13.006;2023-10-13T03:18:06;19.42;;;14.63;;
28862;SDS011;15994;51.796;13.006;2023-10-13T03:20:38;17.48;;;13.52;;
28862;SDS011;15994;51.796;13.006;2023-10-13T03:23:07;17.77;;;13.63;;
28862;SDS011;15994;51.796;13.006;2023-10-13T03:25:34;17.10;;;13.07;;
28862;SDS011;15994;51.796;13.006;2023-10-13T03:28:07;21.05;;;13.30;;
28862;SDS011;15994;51.796;13.006;2023-10-13T03:30:37;14.85;;;12.45;;
28862;SDS011;15994;51.796;13.006;2023-10-13T03:33:07;19.95;;;14.02;;
28862;SDS011;15994;51.796;13.006;2023-10-13T03:35:39;19.70;;;13.52;;
28862;SDS011;15994;51.796;13.006;2023-10-13T03:38:09;17.48;;;13.82;;
28862;SDS011;15994;51.796;13.006;2023-10-13T03:40:50;18.05;;;14.57;;
28862;SDS011;15994;51.796;13.006;2023-10-13T03:43:33;22.20;;;15.27;;
28862;SDS011;15994;51.796;13.006;2023-10-13T03:46:10;21.33;;;14.40;;
28862;SDS011;15994;51.796;13.006;2023-10-13T03:48:37;20.17;;;13.73;;
28862;SDS011;15994;51.796;13.006;2023-10-13T03:51:17;22.30;;;13.65;;
28862;SDS011;15994;51.796;13.006;2023-10-13T03:53:44;16.05;;;13.38;;
28862;SDS011;15994;51.796;13.006;2023-10-13T03:56:22;19.67;;;12.82;;
28862;SDS011;15994;51.796;13.006;2023-10-13T03:58:52;17.67;;;13.05;;
28862;SDS011;15994;51.796;13.006;2023-10-13T04:01:22;18.05;;;12.93;;
28862;SDS011;15994;51.796;13.006;2023-10-13T04:03:57;15.43;;;12.25;;
28862;SDS011;15994;51.796;13.006;2023-10-13T04:06:28;17.55;;;11.65;;
28862;SDS011;15994;51.796;13.006;2023-10-13T04:09:12;18.65;;;12.45;;
28862;SDS011;15994;51.796;13.006;2023-10-13T04:15:07;14.85;;;11.05;;
28862;SDS011;15994;51.796;13.006;2023-10-13T04:17:42;19.15;;;11.65;;
28862;SDS011;15994;51.796;13.006;2023-10-13T04:20:11;17.48;;;12.25;;
28862;SDS011;15994;51.796;13.006;2023-10-13T04:22:54;13.85;;;10.18;;
28862;SDS011;15994;51.796;13.006;2023-10-13T04:25:38;16.10;;;10.23;;
28862;SDS011;15994;51.796;13.006;2023-10-13T04:28:17;18.75;;;10.85;;
28862;SDS011;15994;51.796;13.006;2023-10-13T04:30:58;13.80;;;9.75;;
28862;SDS011;15994;51.796;13.006;2023-10-13T04:33:36;14.82;;;10.30;;
28862;SDS011;15994;51.796;13.006;2023-10-13T04:36:11;11.68;;;9.90;;
28862;SDS011;15994;51.796;13.006;2023-10-13T04:38:44;15.15;;;9.95;;
28862;SDS011;15994;51.796;13.006;2023-10-13T04:41:31;16.25;;;10.05;;
28862;SDS011;15994;51.796;13.006;2023-10-13T04:44:03;20.02;;;10.45;;
28862;SDS011;15994;51.796;13.006;2023-10-13T04:46:30;14.32;;;9.82;;
28862;SDS011;15994;51.796;13.006;2023-10-13T04:49:33;12.95;;;10.25;;
28862;SDS011;15994;51.796;13.006;2023-10-13T04:52:15;12.77;;;9.50;;
28862;SDS011;15994;51.796;13.006;2023-10-13T04:55:02;12.10;;;9.23;;
28862;SDS011;15994;51.796;13.006;2023-10-13T04:57:41;12.82;;;10.32;;
28862;SDS011;15994;51.796;13.006;2023-10-13T05:00:12;15.90;;;10.52;;
28862;SDS011;15994;51.796;13.006;2023-10-13T05:02:57;16.20;;;10.10;;
28862;SDS011;15994;51.796;13.006;2023-10-13T05:05:53;16.67;;;10.95;;
28862;SDS011;15994;51.796;13.006;2023-10-13T05:08:52;17.35;;;10.63;;
28862;SDS011;15994;51.796;13.006;2023-10-13T05:11:48;15.50;;;10.43;;
28862;SDS011;15994;51.796;13.006;2023-10-13T05:14:33;15.30;;;10.95;;
28862;SDS011;15994;51.796;13.006;2023-10-13T05:17:18;13.63;;;10.13;;
28862;SDS011;15994;51.796;13.006;2023-10-13T05:20:02;16.15;;;11.80;;
28862;SDS011;15994;51.796;13.006;2023-10-13T05:22:47;16.45;;;10.93;;
28862;SDS011;15994;51.796;13.006;2023-10-13T05:25:34;15.00;;;11.18;;
28862;SDS011;15994;51.796;13.006;2023-10-13T05:28:19;13.27;;;10.10;;
28862;SDS011;15994;51.796;13.006;2023-10-13T05:31:03;16.42;;;11.50;;
28862;SDS011;15994;51.796;13.006;2023-10-13T05:33:48;15.57;;;11.50;;
28862;SDS011;15994;51.796;13.006;2023-10-13T05:36:33;16.02;;;11.65;;
28862;SDS011;15994;51.796;13.006;2023-10-13T05:39:18;15.82;;;10.55;;
28862;SDS011;15994;51.796;13.006;2023-10-13T05:42:03;15.75;;;11.85;;
28862;SDS011;15994;51.796;13.006;2023-10-13T05:44:47;16.70;;;11.63;;
28862;SDS011;15994;51.796;13.006;2023-10-13T05:47:21;21.17;;;12.52;;
28862;SDS011;15994;51.796;13.006;2023-10-13T05:50:08;17.45;;;12.00;;
28862;SDS011;15994;51.796;13.006;2023-10-13T05:52:54;17.52;;;13.02;;
28862;SDS011;15994;51.796;13.006;2023-10-13T05:55:38;16.73;;;12.45;;
28862;SDS011;15994;51.796;13.006;2023-10-13T05:58:23;16.10;;;12.75;;
28862;SDS011;15994;51.796;13.006;2023-10-13T06:01:11;17.13;;;11.90;;
28862;SDS011;15994;51.796;13.006;2023-10-13T06:03:56;16.65;;;12.13;;
28862;SDS011;15994;51.796;13.006;2023-10-13T06:06:41;15.57;;;12.13;;
28862;SDS011;15994;51.796;13.006;2023-10-13T06:09:25;15.48;;;11.98;;
28862;SDS011;15994;51.796;13.006;2023-10-13T06:12:21;16.85;;;12.40;;
28862;SDS011;15994;51.796;13.006;2023-10-13T06:15:06;17.67;;;12.88;;
28862;SDS011;15994;51.796;13.006;2023-10-13T06:17:50;19.85;;;12.77;;
28862;SDS011;15994;51.796;13.006;2023-10-13T06:20:38;16.63;;;13.02;;
28862;SDS011;15994;51.796;13.006;2023-10-13T06:23:22;19.23;;;13.23;;
28862;SDS011;15994;51.796;13.006;2023-10-13T06:26:07;18.38;;;13.32;;
28862;SDS011;15994;51.796;13.006;2023-10-13T06:28:52;19.77;;;14.02;;
28862;SDS011;15994;51.796;13.006;2023-10-13T06:31:19;19.67;;;13.93;;
28862;SDS011;15994;51.796;13.006;2023-10-13T06:33:50;19.25;;;14.05;;
28862;SDS011;15994;51.796;13.006;2023-10-13T06:36:20;17.23;;;13.73;;
28862;SDS011;15994;51.796;13.006;2023-10-13T06:38:47;17.08;;;13.90;;
28862;SDS011;15994;51.796;13.006;2023-10-13T06:41:41;21.77;;;14.60;;
28862;SDS011;15994;51.796;13.006;2023-10-13T06:44:08;21.48;;;14.50;;
28862;SDS011;15994;51.796;13.006;2023-10-13T06:46:40;20.35;;;14.23;;
28862;SDS011;15994;51.796;13.006;2023-10-13T06:49:09;19.08;;;13.75;;
28862;SDS011;15994;51.796;13.006;2023-10-13T06:51:38;15.35;;;12.73;;
28862;SDS011;15994;51.796;13.006;2023-10-13T06:54:05;16.90;;;13.43;;
28862;SDS011;15994;51.796;13.006;2023-10-13T06:56:43;17.15;;;12.32;;
28862;SDS011;15994;51.796;13.006;2023-10-13T06:59:11;16.13;;;12.30;;
28862;SDS011;15994;51.796;13.006;2023-10-13T07:01:38;14.68;;;12.02;;
28862;SDS011;15994;51.796;13.006;2023-10-13T07:04:07;17.45;;;12.27;;
28862;SDS011;15994;51.796;13.006;2023-10-13T07:06:39;17.00;;;11.40;;
28862;SDS011;15994;51.796;13.006;2023-10-13T07:09:18;15.70;;;11.18;;
28862;SDS011;15994;51.796;13.006;2023-10-13T07:12:16;15.60;;;11.50;;
28862;SDS011;15994;51.796;13.006;2023-10-13T07:14:48;14.80;;;10.55;;
28862;SDS011;15994;51.796;13.006;2023-10-13T07:17:18;13.48;;;10.00;;
28862;SDS011;15994;51.796;13.006;2023-10-13T07:19:49;14.68;;;10.98;;
28862;SDS011;15994;51.796;13.006;2023-10-13T07:22:19;13.95;;;10.50;;
28862;SDS011;15994;51.796;13.006;2023-10-13T07:24:47;16.52;;;10.27;;
28862;SDS011;15994;51.796;13.006;2023-10-13T07:27:15;14.32;;;9.75;;
28862;SDS011;15994;51.796;13.006;2023-10-13T07:29:48;13.85;;;9.45;;
28862;SDS011;15994;51.796;13.006;2023-10-13T07:32:22;17.45;;;10.00;;
28862;SDS011;15994;51.796;13.006;2023-10-13T07:34:52;13.50;;;9.30;;
28862;SDS011;15994;51.796;13.006;2023-10-13T07:37:22;13.65;;;9.30;;
28862;SDS011;15994;51.796;13.006;2023-10-13T07:39:53;12.95;;;8.98;;
28862;SDS011;15994;51.796;13.006;2023-10-13T07:42:22;14.02;;;8.60;;
28862;SDS011;15994;51.796;13.006;2023-10-13T07:44:55;12.95;;;8.57;;
28862;SDS011;15994;51.796;13.006;2023-10-13T07:47:22;14.15;;;9.00;;
28862;SDS011;15994;51.796;13.006;2023-10-13T07:49:51;10.82;;;7.53;;
28862;SDS011;15994;51.796;13.006;2023-10-13T07:52:21;11.98;;;8.80;;
28862;SDS011;15994;51.796;13.006;2023-10-13T07:55:00;10.45;;;7.38;;
28862;SDS011;15994;51.796;13.006;2023-10-13T07:57:36;10.10;;;7.60;;
28862;SDS011;15994;51.796;13.006;2023-10-13T08:00:18;12.43;;;7.35;;
28862;SDS011;15994;51.796;13.006;2023-10-13T08:02:57;11.18;;;6.93;;
28862;SDS011;15994;51.796;13.006;2023-10-13T08:05:53;11.48;;;6.95;;
28862;SDS011;15994;51.796;13.006;2023-10-13T08:08:29;12.45;;;7.28;;
28862;SDS011;15994;51.796;13.006;2023-10-13T08:11:03;10.50;;;6.88;;
28862;SDS011;15994;51.796;13.006;2023-10-13T08:13:36;9.95;;;6.70;;
28862;SDS011;15994;51.796;13.006;2023-10-13T08:16:05;9.00;;;6.80;;
28862;SDS011;15994;51.796;13.006;2023-10-13T08:18:34;11.13;;;6.70;;
28862;SDS011;15994;51.796;13.006;2023-10-13T08:21:06;9.32;;;6.60;;
28862;SDS011;15994;51.796;13.006;2023-10-13T08:23:41;10.48;;;6.40;;
28862;SDS011;15994;51.796;13.006;2023-10-13T08:26:28;10.52;;;6.35;;
28862;SDS011;15994;51.796;13.006;2023-10-13T08:29:12;10.27;;;6.43;;
28862;SDS011;15994;51.796;13.006;2023-10-13T08:31:55;8.68;;;5.72;;
28862;SDS011;15994;51.796;13.006;2023-10-13T08:34:39;10.27;;;5.97;;
28862;SDS011;15994;51.796;13.006;2023-10-13T08:37:28;9.90;;;5.80;;
28862;SDS011;15994;51.796;13.006;2023-10-13T08:39:59;9.80;;;6.32;;
28862;SDS011;15994;51.796;13.006;2023-10-13T08:42:40;11.57;;;5.78;;
28862;SDS011;15994;51.796;13.006;2023-10-13T08:45:20;10.60;;;6.18;;
28862;SDS011;15994;51.796;13.006;2023-10-13T08:48:10;9.45;;;5.28;;
28862;SDS011;15994;51.796;13.006;2023-10-13T08:58:34;9.13;;;5.28;;
28862;SDS011;15994;51.796;13.006;2023-10-13T09:04:18;9.77;;;5.10;;
28862;SDS011;15994;51.796;13.006;2023-10-13T09:06:50;7.80;;;4.70;;
28862;SDS011;15994;51.796;13.006;2023-10-13T09:12:24;8.60;;;4.22;;
28862;SDS011;15994;51.796;13.006;2023-10-13T09:15:01;8.45;;;4.80;;
28862;SDS011;15994;51.796;13.006;2023-10-13T09:17:31;9.82;;;5.13;;
28862;SDS011;15994;51.796;13.006;2023-10-13T09:22:44;9.00;;;4.95;;
28862;SDS011;15994;51.796;13.006;2023-10-13T09:25:21;8.43;;;5.25;;
28862;SDS011;15994;51.796;13.006;2023-10-13T09:27:48;10.32;;;4.97;;
28862;SDS011;15994;51.796;13.006;2023-10-13T09:30:19;10.10;;;4.88;;
28862;SDS011;15994;51.796;13.006;2023-10-13T09:32:45;11.25;;;5.05;;
28862;SDS011;15994;51.796;13.006;2023-10-13T09:35:18;11.07;;;5.55;;
28862;SDS011;15994;51.796;13.006;2023-10-13T09:37:48;7.70;;;4.47;;
28862;SDS011;15994;51.796;13.006;2023-10-13T09:40:17;10.25;;;5.05;;
28862;SDS011;15994;51.796;13.006;2023-10-13T09:42:58;8.85;;;4.78;;
28862;SDS011;15994;51.796;13.006;2023-10-13T09:45:32;10.40;;;5.40;;
28862;SDS011;15994;51.796;13.006;2023-10-13T09:48:02;9.57;;;5.40;;
28862;SDS011;15994;51.796;13.006;2023-10-13T09:50:41;12.10;;;4.93;;
28862;SDS011;15994;51.796;13.006;2023-10-13T09:53:10;10.73;;;4.88;;
28862;SDS011;15994;51.796;13.006;2023-10-13T09:55:43;11.77;;;4.65;;
28862;SDS011;15994;51.796;13.006;2023-10-13T09:58:11;11.20;;;5.00;;
28862;SDS011;15994;51.796;13.006;2023-10-13T10:00:43;10.15;;;5.43;;
28862;SDS011;15994;51.796;13.006;2023-10-13T10:03:15;9.60;;;5.38;;
28862;SDS011;15994;51.796;13.006;2023-10-13T10:05:59;9.88;;;5.25;;
28862;SDS011;15994;51.796;13.006;2023-10-13T10:08:30;8.13;;;5.43;;
28862;SDS011;15994;51.796;13.006;2023-10-13T10:16:00;11.27;;;6.30;;
28862;SDS011;15994;51.796;13.006;2023-10-13T10:18:30;11.48;;;6.32;;
28862;SDS011;15994;51.796;13.006;2023-10-13T10:21:04;12.75;;;5.80;;
28862;SDS011;15994;51.796;13.006;2023-10-13T10:23:35;13.68;;;6.65;;
28862;SDS011;15994;51.796;13.006;2023-10-13T10:28:39;9.95;;;5.70;;
28862;SDS011;15994;51.796;13.006;2023-10-13T10:31:07;10.73;;;5.60;;
28862;SDS011;15994;51.796;13.006;2023-10-13T10:33:37;14.48;;;6.60;;
28862;SDS011;15994;51.796;13.006;2023-10-13T10:36:05;12.13;;;6.07;;
28862;SDS011;15994;51.796;13.006;2023-10-13T10:38:50;12.85;;;6.30;;
28862;SDS011;15994;51.796;13.006;2023-10-13T10:41:18;9.48;;;5.80;;
28862;SDS011;15994;51.796;13.006;2023-10-13T10:43:54;11.45;;;5.78;;
28862;SDS011;15994;51.796;13.006;2023-10-13T10:46:25;10.90;;;6.22;;
28862;SDS011;15994;51.796;13.006;2023-10-13T10:48:55;12.38;;;6.47;;
28862;SDS011;15994;51.796;13.006;2023-10-13T10:51:26;11.93;;;6.13;;
28862;SDS011;15994;51.796;13.006;2023-10-13T10:53:57;13.35;;;6.32;;
28862;SDS011;15994;51.796;13.006;2023-10-13T10:56:36;10.65;;;6.00;;
28862;SDS011;15994;51.796;13.006;2023-10-13T10:59:04;13.05;;;5.55;;
28862;SDS011;15994;51.796;13.006;2023-10-13T11:01:42;11.70;;;5.70;;
28862;SDS011;15994;51.796;13.006;2023-10-13T11:06:53;11.52;;;5.60;;
28862;SDS011;15994;51.796;13.006;2023-10-13T11:09:30;16.65;;;6.22;;
28862;SDS011;15994;51.796;13.006;2023-10-13T11:12:11;11.40;;;5.50;;
28862;SDS011;15994;51.796;13.006;2023-10-13T11:14:42;12.38;;;5.70;;
28862;SDS011;15994;51.796;13.006;2023-10-13T11:17:18;12.75;;;5.25;;
28862;SDS011;15994;51.796;13.006;2023-10-13T11:19:50;13.57;;;5.78;;
28862;SDS011;15994;51.796;13.006;2023-10-13T11:22:19;12.32;;;5.47;;
28862;SDS011;15994;51.796;13.006;2023-10-13T11:24:57;11.02;;;5.22;;
28862;SDS011;15994;51.796;13.006;2023-10-13T11:27:29;9.80;;;5.15;;
28862;SDS011;15994;51.796;13.006;2023-10-13T11:30:13;13.02;;;5.30;;
28862;SDS011;15994;51.796;13.006;2023-10-13T11:32:41;12.13;;;5.13;;
28862;SDS011;15994;51.796;13.006;2023-10-13T11:35:09;9.85;;;4.93;;
28862;SDS011;15994;51.796;13.006;2023-10-13T11:37:45;15.05;;;5.15;;
28862;SDS011;15994;51.796;13.006;2023-10-13T11:40:21;12.57;;;4.93;;
28862;SDS011;15994;51.796;13.006;2023-10-13T11:43:09;13.98;;;5.07;;
28862;SDS011;15994;51.796;13.006;2023-10-13T11:45:39;10.18;;;4.45;;
28862;SDS011;15994;51.796;13.006;2023-10-13T11:48:20;11.18;;;4.63;;
28862;SDS011;15994;51.796;13.006;2023-10-13T11:51:01;12.30;;;5.10;;
28862;SDS011;15994;51.796;13.006;2023-10-13T11:53:32;13.82;;;5.53;;
28862;SDS011;15994;51.796;13.006;2023-10-13T11:56:00;11.32;;;5.05;;
28862;SDS011;15994;51.796;13.006;2023-10-13T11:58:27;10.32;;;4.40;;
28862;SDS011;15994;51.796;13.006;2023-10-13T12:00:55;10.07;;;4.68;;
28862;SDS011;15994;51.796;13.006;2023-10-13T12:03:45;10.82;;;4.88;;
28862;SDS011;15994;51.796;13.006;2023-10-13T12:06:30;13.48;;;4.60;;
28862;SDS011;15994;51.796;13.006;2023-10-13T12:09:11;12.10;;;4.63;;
28862;SDS011;15994;51.796;13.006;2023-10-13T12:11:54;9.15;;;4.65;;
28862;SDS011;15994;51.796;13.006;2023-10-13T12:14:25;16.38;;;5.00;;
28862;SDS011;15994;51.796;13.006;2023-10-13T12:16:55;11.80;;;4.75;;
28862;SDS011;15994;51.796;13.006;2023-10-13T12:19:28;13.93;;;4.65;;
28862;SDS011;15994;51.796;13.006;2023-10-13T12:21:56;7.93;;;4.53;;
28862;SDS011;15994;51.796;13.006;2023-10-13T12:24:29;12.15;;;4.68;;
28862;SDS011;15994;51.796;13.006;2023-10-13T12:27:08;10.60;;;4.82;;
28862;SDS011;15994;51.796;13.006;2023-10-13T12:29:48;12.18;;;4.45;;
28862;SDS011;15994;51.796;13.006;2023-10-13T12:32:17;8.77;;;4.50;;
28862;SDS011;15994;51.796;13.006;2023-10-13T12:34:47;11.52;;;4.57;;
28862;SDS011;15994;51.796;13.006;2023-10-13T12:37:29;15.63;;;4.15;;
28862;SDS011;15994;51.796;13.006;2023-10-13T12:40:16;15.02;;;4.88;;
28862;SDS011;15994;51.796;13.006;2023-10-13T12:43:01;14.07;;;4.28;;
28862;SDS011;15994;51.796;13.006;2023-10-13T12:45:46;12.25;;;4.55;;
28862;SDS011;15994;51.796;13.006;2023-10-13T12:48:32;13.93;;;4.50;;
28862;SDS011;15994;51.796;13.006;2023-10-13T12:51:17;12.70;;;4.65;;
28862;SDS011;15994;51.796;13.006;2023-10-13T12:54:05;11.52;;;4.47;;
28862;SDS011;15994;51.796;13.006;2023-10-13T12:56:39;11.77;;;4.60;;
28862;SDS011;15994;51.796;13.006;2023-10-13T12:59:10;12.48;;;4.57;;
28862;SDS011;15994;51.796;13.006;2023-10-13T13:01:39;11.88;;;4.85;;
28862;SDS011;15994;51.796;13.006;2023-10-13T13:04:11;10.73;;;4.03;;
28862;SDS011;15994;51.796;13.006;2023-10-13T13:06:44;11.80;;;4.25;;
28862;SDS011;15994;51.796;13.006;2023-10-13T13:09:12;13.25;;;4.40;;
28862;SDS011;15994;51.796;13.006;2023-10-13T13:11:39;8.98;;;4.22;;
28862;SDS011;15994;51.796;13.006;2023-10-13T13:14:07;8.70;;;4.18;;
28862;SDS011;15994;51.796;13.006;2023-10-13T13:16:34;10.65;;;4.60;;
28862;SDS011;15994;51.796;13.006;2023-10-13T13:19:04;10.23;;;4.10;;
28862;SDS011;15994;51.796;13.006;2023-10-13T13:21:36;10.55;;;4.07;;
28862;SDS011;15994;51.796;13.006;2023-10-13T13:24:04;11.95;;;4.82;;
28862;SDS011;15994;51.796;13.006;2023-10-13T13:26:35;11.77;;;4.63;;
28862;SDS011;15994;51.796;13.006;2023-10-13T13:29:05;12.40;;;4.65;;
28862;SDS011;15994;51.796;13.006;2023-10-13T13:31:34;11.18;;;4.32;;
28862;SDS011;15994;51.796;13.006;2023-10-13T13:34:06;12.63;;;4.47;;
28862;SDS011;15994;51.796;13.006;2023-10-13T13:36:36;11.70;;;4.13;;
28862;SDS011;15994;51.796;13.006;2023-10-13T13:39:05;10.55;;;4.53;;
28862;SDS011;15994;51.796;13.006;2023-10-13T13:41:33;13.05;;;4.78;;
28862;SDS011;15994;51.796;13.006;2023-10-13T13:44:00;12.43;;;4.53;;
28862;SDS011;15994;51.796;13.006;2023-10-13T13:46:40;11.07;;;4.53;;
28862;SDS011;15994;51.796;13.006;2023-10-13T13:49:08;9.60;;;4.00;;
28862;SDS011;15994;51.796;13.006;2023-10-13T13:51:43;10.48;;;4.78;;
28862;SDS011;15994;51.796;13.006;2023-10-13T13:54:16;12.50;;;4.35;;
28862;SDS011;15994;51.796;13.006;2023-10-13T13:56:43;11.93;;;4.43;;
28862;SDS011;15994;51.796;13.006;2023-10-13T13:59:10;12.77;;;4.82;;
28862;SDS011;15994;51.796;13.006;2023-10-13T14:01:41;10.20;;;4.40;;
28862;SDS011;15994;51.796;13.006;2023-10-13T14:04:09;12.05;;;4.70;;
28862;SDS011;15994;51.796;13.006;2023-10-13T14:06:36;11.02;;;4.72;;
28862;SDS011;15994;51.796;13.006;2023-10-13T14:09:05;11.10;;;4.53;;
28862;SDS011;15994;51.796;13.006;2023-10-13T14:11:40;10.00;;;4.68;;
28862;SDS011;15994;51.796;13.006;2023-10-13T14:14:25;10.75;;;4.38;;
28862;SDS011;15994;51.796;13.006;2023-10-13T14:16:58;14.75;;;4.65;;
28862;SDS011;15994;51.796;13.006;2023-10-13T14:19:32;13.57;;;4.50;;
28862;SDS011;15994;51.796;13.006;2023-10-13T14:21:59;12.95;;;4.75;;
28862;SDS011;15994;51.796;13.006;2023-10-13T14:24:31;13.73;;;4.57;;
28862;SDS011;15994;51.796;13.006;2023-10-13T14:27:03;11.50;;;4.97;;
28862;SDS011;15994;51.796;13.006;2023-10-13T14:29:34;10.23;;;4.20;;
28862;SDS011;15994;51.796;13.006;2023-10-13T14:32:05;12.02;;;4.38;;
28862;SDS011;15994;51.796;13.006;2023-10-13T14:34:32;14.10;;;4.55;;
28862;SDS011;15994;51.796;13.006;2023-10-13T14:37:00;10.82;;;5.00;;
28862;SDS011;15994;51.796;13.006;2023-10-13T14:39:29;12.27;;;4.88;;
28862;SDS011;15994;51.796;13.006;2023-10-13T14:41:59;14.43;;;5.35;;
28862;SDS011;15994;51.796;13.006;2023-10-13T14:44:27;15.07;;;4.80;;
28862;SDS011;15994;51.796;13.006;2023-10-13T14:46:54;12.05;;;4.47;;
28862;SDS011;15994;51.796;13.006;2023-10-13T14:49:21;11.73;;;4.90;;
28862;SDS011;15994;51.796;13.006;2023-10-13T14:51:49;12.30;;;4.65;;
28862;SDS011;15994;51.796;13.006;2023-10-13T14:54:17;11.40;;;4.55;;
28862;SDS011;15994;51.796;13.006;2023-10-13T14:56:54;13.25;;;4.68;;
28862;SDS011;15994;51.796;13.006;2023-10-13T14:59:21;9.38;;;4.35;;
28862;SDS011;15994;51.796;13.006;2023-10-13T15:01:49;13.35;;;5.18;;
28862;SDS011;15994;51.796;13.006;2023-10-13T15:04:16;13.50;;;4.68;;
28862;SDS011;15994;51.796;13.006;2023-10-13T15:06:43;10.73;;;4.65;;
28862;SDS011;15994;51.796;13.006;2023-10-13T15:09:10;11.57;;;5.00;;
28862;SDS011;15994;51.796;13.006;2023-10-13T15:11:37;11.13;;;4.88;;
28862;SDS011;15994;51.796;13.006;2023-10-13T15:14:05;9.40;;;4.30;;
28862;SDS011;15994;51.796;13.006;2023-10-13T15:16:33;9.68;;;4.53;;
28862;SDS011;15994;51.796;13.006;2023-10-13T15:19:02;10.30;;;4.47;;
28862;SDS011;15994;51.796;13.006;2023-10-13T15:21:31;12.27;;;4.57;;
28862;SDS011;15994;51.796;13.006;2023-10-13T15:23:59;10.60;;;4.95;;
28862;SDS011;15994;51.796;13.006;2023-10-13T15:26:29;10.25;;;4.63;;
28862;SDS011;15994;51.796;13.006;2023-10-13T15:29:02;8.93;;;4.10;;